首页
METAR-TAF:

METAR-TAF

机场 :

朱利叶斯·尼雷尔国际机场

达累斯萨拉姆, 坦桑尼亚

纬度: 06-52S, 经度: 039-12E, 海拔: 55米

当前天气观测

该预报发布于39分钟前的04:00 UTC
风速4节,风向西转西南
温度 22°C
湿度 94%
气压 1017 hPa
能见度10公里或以上
少量云层高于1100英尺
散云层高于7000英尺

METAR: HTDA 150400Z 25004KT 9999 FEW011 SCT070 22/21 Q1017 NOSIG

时间: 07:39 (04:39 UTC)

预报

该预报发布于5小时和39分钟前的23:00 UTC
预报有效从15日的 00点(UTC)到 16日的 06点(UTC)
风速5节,风向西转西南
能见度10公里或以上
散云层高于1200英尺
成为
从 15日的 09点(UTC)到 15日的 12点(UTC)
风速10节,风向
多云层高于2400英尺
成为
从 15日的 12点(UTC)到 15日的 15点(UTC)
散云层高于2800英尺

TAF: HTDA 142300Z 1500/1606 24005KT 9999 SCT012 BECMG 1509/1512 17010KT BKN024 BECMG 1512/1515 SCT028

超过4000个机场的气象观测和天气预报(METAR&TAF报告)。

可查询的气象台以黄色和红色小点在地图上表示。

将鼠标移到小点上方,可查看气象台名称。

然后点击查看天气观测和预报。

如需切换地图:点击带黑十字的绿色按钮放大地图;点击带横线的绿色按钮缩小地图;或者点击绿色箭头查看邻近地区的地图。


METAR-TAF: